Birmingham International Airport

Airport
ICAO code: 
EGBB
IATA Code: 
BHX
Summary
ICAO Region: 
EUR
Territory: 
Location: 
Elmdon, England
Serving: 
Birmingham
Elevation: 
328 ft
Coordinates: 
Aerial View: 
52° 27' 12.906" N, 1° 44' 50.531" W
Metar
Observation
EGBB 030150Z AUTO 18006KT 160V220 3200 RA OVC004/// 01/01 Q1009
Station
Birmingham / Airport
Date/Time
2021-12-03 01:50:00
Wind direction
180°
Wind speed
06 kts
Lowest cloud amount
overcast
Temperature
1°C
Dew point
1°C
Humidity
100%
QNH
1009 hPa
Weather condition
n/a

Description

International airport serving Birmingham and the West Midlands conurbation.

Climatology

Temperate Marine climate/Oceanic climate (Köppen climate classification Cfb). Moderately cool summer and comparatively warm winter with a temperature range of only 14°C. Prevailing south-westerly winds from the Atlantic Ocean.

Runways

Designator Length Width Surface Rops
6/24 1315 30 ASP Yes/Yes
15/33 2605 46 ASP Yes/Yes

SKYbrary Partners:

Safety knowledge contributed by: